EST,Max TemperatureF,Mean TemperatureF,Min TemperatureF,Max Dew PointF,MeanDew PointF,Min DewpointF,Max Humidity, Mean Humidity, Min Humidity, Max Sea Level PressureIn, Mean Sea Level PressureIn, Min Sea Level PressureIn, Max VisibilityMiles, Mean VisibilityMiles, Min VisibilityMiles, Max Wind SpeedMPH, Mean Wind SpeedMPH, Max Gust SpeedMPH,PrecipitationIn, CloudCover, Events, WindDirDegrees
2012-11-1,57,53,48,54,47,46,93,85,77,29.57,29.51,29.47,10,8,2,13,3,20,0.13,7,Rain,184
2012-11-2,50,47,43,46,44,40,93,84,74,29.54,29.49,29.46,10,8,4,7,2,9,0.02,8,Rain,216
2012-11-3,48,41,34,40,38,33,92,84,76,29.61,29.56,29.53,10,10,4,13,5,18,0.00,7,Rain,306
2012-11-4,43,38,33,38,32,25,85,75,64,29.86,29.71,29.59,10,10,8,17,9,25,0.03,8,Rain,317
2012-11-5,35,32,29,25,20,14,69,57,45,30.01,29.95,29.86,10,10,10,13,5,18,0.00,8,,331
2012-11-6,35,26,17,22,15,9,88,62,35,30.27,30.11,29.98,10,9,1,18,5,25,T,3,Snow,276
2012-11-7,38,26,14,27,18,11,88,64,40,30.31,30.20,30.07,10,10,9,15,6,21,0.00,2,,18
2012-11-8,35,33,31,34,30,25,96,84,72,30.04,29.90,29.76,10,3,1,15,11,20,0.87,8,Rain-Snow,14
2012-11-9,36,34,31,31,30,28,89,86,82,29.91,29.78,29.73,10,7,1,15,8,22,0.40,7,Rain-Snow,329
2012-11-10,38,30,22,28,19,13,75,55,35,30.45,30.18,29.92,10,10,10,18,7,25,0.00,2,,290
2012-11-11,36,26,16,29,23,14,92,76,59,30.53,30.46,30.41,10,10,8,6,1,9,T,6,,164
2012-11-12,59,47,35,52,43,34,100,73,46,30.42,30.32,30.18,10,6,0,18,7,28,0.00,6,Fog,195
2012-11-13,61,45,29,56,44,27,93,84,75,30.40,30.15,30.04,10,7,2,22,6,31,0.34,7,Rain,255
2012-11-14,39,31,23,27,24,21,92,76,59,30.57,30.53,30.42,10,10,10,15,5,21,0.00,0,,11
2012-11-15,35,28,21,27,23,19,92,81,69,30.54,30.46,30.32,10,10,10,13,4,15,0.00,5,,10
2012-11-16,34,29,23,27,24,22,92,81,69,30.39,30.31,30.26,10,10,10,10,3,14,0.00,5,,335
2012-11-17,35,25,15,24,15,12,88,65,41,30.68,30.58,30.40,10,10,10,17,5,23,0.00,1,,347
2012-11-18,39,27,14,21,17,11,92,68,44,30.75,30.70,30.65,10,10,10,7,1,9,0.00,0,,352
2012-11-19,44,30,16,22,18,12,92,63,33,30.63,30.45,30.27,10,10,10,9,1,10,0.00,0,,214
2012-11-20,46,31,16,25,21,14,92,67,42,30.25,30.21,30.16,10,10,8,10,2,15,0.00,0,,5
2012-11-21,42,33,23,34,29,23,92,83,73,30.33,30.27,30.22,10,6,2,7,2,12,0.00,4,,159
2012-11-22,46,35,23,36,31,22,92,76,60,30.24,30.16,30.03,10,7,1,12,6,20,0.00,4,,203
2012-11-23,53,45,37,39,37,35,92,73,54,30.03,29.84,29.63,10,9,5,14,7,22,0.00,5,,197
2012-11-24,46,38,29,43,35,21,89,79,69,29.61,29.41,29.29,10,9,2,16,6,22,0.10,8,Rain,248
2012-11-25,30,27,24,21,15,11,69,58,46,29.57,29.39,29.27,10,10,10,25,12,38,T,7,,265
2012-11-26,29,24,18,12,10,9,67,55,42,30.15,29.84,29.60,10,10,10,20,9,32,0.00,2,,269
2012-11-27,29,19,8,13,9,6,91,65,39,30.32,30.28,30.17,10,10,10,9,1,12,0.00,1,,239
2012-11-28,31,19,6,15,9,2,83,65,47,30.30,30.19,30.06,10,10,10,8,1,10,0.00,0,,50
2012-11-29,27,19,10,18,11,1,92,65,38,30.16,30.03,29.96,10,8,2,18,8,29,T,5,Snow,281
2012-11-30,22,12,2,2,0,-2,83,62,41,30.60,30.41,30.19,10,10,10,17,6,24,0.00,0,,292